Time;durP1;ratioP1;P1;durP2;ratioP2;P2;SDS_P1;SDS_P2;PMS_P1;PMS_P2;Temp;Humidity;BMP_temperature;BMP_pressure;BME280_temperature;BME280_humidity;BME280_pressure;Samples;Min_cycle;Max_cycle;Signal;HPM_P1;HPM_P2
2023/04/29 00:01:31;;;;;;;38.37;35.40;;;19.00;89.20;;;;;;5045982;28;20488;-66
2023/04/29 00:03:58;;;;;;;36.17;33.43;;;19.20;89.50;;;;;;5051640;28;20184;-66
2023/04/29 00:06:27;;;;;;;38.87;35.53;;;19.20;89.10;;;;;;5050013;28;20612;-66
2023/04/29 00:08:54;;;;;;;37.17;33.87;;;19.20;89.10;;;;;;5049235;28;20597;-67
2023/04/29 00:11:22;;;;;;;37.00;33.87;;;19.10;89.10;;;;;;5052070;28;20207;-66
2023/04/29 00:13:49;;;;;;;34.37;31.23;;;19.00;89.10;;;;;;5051912;28;20186;-66
2023/04/29 00:16:17;;;;;;;35.40;32.07;;;19.00;89.10;;;;;;5051430;28;20203;-64
2023/04/29 00:18:45;;;;;;;34.97;31.67;;;18.90;89.00;;;;;;5048246;28;20179;-65
2023/04/29 00:21:13;;;;;;;38.20;35.10;;;18.90;89.30;;;;;;5050026;28;20196;-68
2023/04/29 00:23:43;;;;;;;36.37;32.93;;;18.90;89.30;;;;;;5049952;28;20180;-63
2023/04/29 00:26:11;;;;;;;34.87;32.40;;;18.80;89.20;;;;;;5051127;28;20238;-67
2023/04/29 00:28:38;;;;;;;38.40;35.03;;;18.80;89.00;;;;;;5051699;28;20203;-67
2023/04/29 00:31:06;;;;;;;39.03;36.00;;;18.60;89.30;;;;;;5050784;28;20246;-66
2023/04/29 00:33:33;;;;;;;41.43;38.00;;;18.70;89.30;;;;;;5049872;28;20188;-69
2023/04/29 00:36:01;;;;;;;47.00;42.87;;;18.70;89.70;;;;;;5050636;28;20600;-68
2023/04/29 00:38:28;;;;;;;53.80;50.03;;;18.80;90.10;;;;;;5050032;28;20245;-65
2023/04/29 00:40:56;;;;;;;48.83;45.27;;;18.80;90.10;;;;;;5049634;28;20219;-67
2023/04/29 00:43:23;;;;;;;50.87;47.33;;;18.80;90.00;;;;;;5051387;28;20527;-68
2023/04/29 00:45:50;;;;;;;54.63;51.13;;;18.80;89.90;;;;;;5044122;28;20188;-65
2023/04/29 00:48:18;;;;;;;57.37;53.33;;;18.90;90.00;;;;;;5050698;28;20196;-66
2023/04/29 00:50:45;;;;;;;54.77;51.13;;;18.80;90.00;;;;;;5049891;28;20225;-64
2023/04/29 00:53:13;;;;;;;54.77;51.20;;;18.80;89.90;;;;;;5050168;28;20204;-67
2023/04/29 00:55:42;;;;;;;57.13;52.33;;;18.80;89.90;;;;;;5050634;28;20215;-65
2023/04/29 00:58:10;;;;;;;56.30;52.30;;;18.80;90.10;;;;;;5051002;28;20240;-68
2023/04/29 01:00:38;;;;;;;53.27;49.17;;;18.80;90.20;;;;;;5049672;28;20565;-66
2023/04/29 01:03:07;;;;;;;52.57;48.60;;;18.80;90.10;;;;;;5047186;28;20190;-67
2023/04/29 01:05:34;;;;;;;54.80;51.07;;;18.70;89.90;;;;;;5048384;28;20191;-63
2023/04/29 01:08:38;;;;;;;54.87;51.17;;;18.60;90.00;;;;;;5050382;28;20623;-67
2023/04/29 01:11:15;;;;;;;60.17;56.00;;;18.60;90.00;;;;;;5048670;28;20196;-64
2023/04/29 01:13:50;;;;;;;62.13;57.60;;;18.60;90.20;;;;;;5050596;28;20623;-64
2023/04/29 01:16:24;;;;;;;62.60;58.47;;;18.80;90.30;;;;;;5052993;28;20850;-69
2023/04/29 01:18:58;;;;;;;74.63;69.93;;;18.80;90.40;;;;;;5054463;28;20182;-64
2023/04/29 01:21:27;;;;;;;79.73;74.33;;;18.90;90.50;;;;;;5049365;28;20848;-65
2023/04/29 01:23:57;;;;;;;79.33;74.23;;;18.90;90.50;;;;;;5055759;28;20646;-67
2023/04/29 01:26:25;;;;;;;81.90;76.60;;;18.90;90.60;;;;;;5056888;28;20191;-66
2023/04/29 01:29:25;;;;;;;86.77;81.73;;;18.90;90.70;;;;;;5057493;28;20557;-67
2023/04/29 01:32:04;;;;;;;98.77;92.30;;;19.00;90.80;;;;;;5054856;28;20595;-68
2023/04/29 01:35:01;;;;;;;90.80;85.33;;;19.00;90.80;;;;;;5053839;28;20219;-65
2023/04/29 01:37:44;;;;;;;86.17;81.17;;;18.90;90.80;;;;;;5053441;28;20222;-67
2023/04/29 01:40:32;;;;;;;83.27;78.10;;;18.80;90.70;;;;;;5056955;28;20190;-64
2023/04/29 01:43:07;;;;;;;77.83;73.10;;;18.80;90.50;;;;;;5056837;28;20547;-64
2023/04/29 01:45:40;;;;;;;82.90;77.37;;;18.70;90.30;;;;;;5054211;28;20183;-66
2023/04/29 01:48:09;;;;;;;81.87;76.77;;;18.70;90.40;;;;;;5057378;28;20192;-64
2023/04/29 01:50:36;;;;;;;88.90;83.43;;;18.70;90.50;;;;;;5057159;28;20222;-64
2023/04/29 01:53:03;;;;;;;88.80;83.33;;;18.60;90.50;;;;;;5057195;28;20211;-67
2023/04/29 01:55:31;;;;;;;88.63;83.67;;;18.60;90.50;;;;;;5051806;28;20216;-65
2023/04/29 01:57:58;;;;;;;83.03;78.13;;;18.60;90.30;;;;;;5057268;28;20548;-67
2023/04/29 02:00:25;;;;;;;83.70;78.23;;;18.50;90.30;;;;;;5053772;28;20280;-65
2023/04/29 02:02:53;;;;;;;80.63;75.57;;;18.60;90.60;;;;;;5051744;28;20586;-66
2023/04/29 02:05:20;;;;;;;88.43;83.53;;;18.70;90.40;;;;;;5057655;28;20193;-64
2023/04/29 02:07:48;;;;;;;81.77;77.03;;;18.70;90.30;;;;;;5056779;28;20196;-65
2023/04/29 02:10:16;;;;;;;87.80;82.87;;;18.60;90.20;;;;;;5054693;28;20223;-65
2023/04/29 02:12:43;;;;;;;84.17;79.20;;;18.60;90.40;;;;;;5057417;28;20263;-66
2023/04/29 02:15:10;;;;;;;84.37;79.43;;;18.50;90.30;;;;;;5056974;28;20212;-64
2023/04/29 02:17:38;;;;;;;79.60;75.20;;;18.50;90.30;;;;;;5053547;28;20262;-64
2023/04/29 02:20:06;;;;;;;80.40;75.83;;;18.50;90.40;;;;;;5057282;28;20245;-64
2023/04/29 02:22:33;;;;;;;83.93;79.03;;;18.50;90.30;;;;;;5050168;28;20180;-63
2023/04/29 02:25:00;;;;;;;80.60;75.90;;;18.50;90.40;;;;;;5056965;28;20215;-65
2023/04/29 02:27:28;;;;;;;85.93;80.90;;;18.50;90.30;;;;;;5055909;28;20658;-67
2023/04/29 02:29:55;;;;;;;79.30;75.10;;;18.50;90.10;;;;;;5053538;28;20237;-66
2023/04/29 02:32:22;;;;;;;86.40;81.73;;;18.30;90.00;;;;;;5052076;28;20229;-66
2023/04/29 02:34:50;;;;;;;95.10;89.93;;;18.30;90.20;;;;;;5053600;28;20713;-66
2023/04/29 02:37:18;;;;;;;104.87;99.10;;;18.30;90.80;;;;;;5052857;28;20267;-66
2023/04/29 02:39:46;;;;;;;108.63;102.77;;;18.30;90.80;;;;;;5048531;28;20642;-68
2023/04/29 02:42:13;;;;;;;115.00;108.67;;;18.30;90.90;;;;;;5053493;28;20252;-68
2023/04/29 02:44:41;;;;;;;122.80;116.00;;;18.20;91.10;;;;;;5053485;28;20212;-68
2023/04/29 02:47:08;;;;;;;129.43;122.13;;;18.30;91.30;;;;;;5053642;28;20183;-68
2023/04/29 02:49:36;;;;;;;132.87;125.67;;;18.40;91.70;;;;;;5053155;28;20187;-68
2023/04/29 02:52:03;;;;;;;138.17;130.50;;;18.50;91.70;;;;;;5051719;28;20181;-67
2023/04/29 02:54:31;;;;;;;141.17;133.47;;;18.60;91.50;;;;;;5053047;28;20219;-66
2023/04/29 02:56:58;;;;;;;129.40;122.60;;;18.60;91.60;;;;;;5053471;28;20203;-66
2023/04/29 02:59:25;;;;;;;118.73;112.43;;;18.40;91.30;;;;;;5053513;28;20184;-66
2023/04/29 03:01:53;;;;;;;107.00;101.30;;;18.30;91.20;;;;;;5053269;28;20196;-65
2023/04/29 03:04:20;;;;;;;105.33;99.73;;;18.20;91.00;;;;;;5053271;28;20203;-65
2023/04/29 03:06:48;;;;;;;110.73;104.40;;;18.10;91.10;;;;;;5053045;28;20249;-65
2023/04/29 03:09:15;;;;;;;109.67;103.87;;;18.20;91.30;;;;;;5051248;28;20298;-67
2023/04/29 03:11:43;;;;;;;113.07;107.20;;;18.20;91.30;;;;;;5052823;28;20591;-68
2023/04/29 03:14:10;;;;;;;97.07;91.77;;;18.20;91.30;;;;;;5052760;28;20246;-67
2023/04/29 03:16:37;;;;;;;115.77;109.43;;;18.10;91.00;;;;;;5052599;28;20191;-65
2023/04/29 03:19:05;;;;;;;110.90;105.27;;;18.10;91.20;;;;;;5052807;28;20192;-65
2023/04/29 03:21:32;;;;;;;114.13;108.10;;;18.20;91.20;;;;;;5049057;28;20185;-65
2023/04/29 03:23:59;;;;;;;122.47;115.90;;;18.30;91.20;;;;;;5051180;28;20195;-68
2023/04/29 03:26:27;;;;;;;131.97;125.10;;;18.30;91.30;;;;;;5052606;28;20179;-68
2023/04/29 03:28:54;;;;;;;137.20;129.90;;;18.40;91.30;;;;;;5052523;28;20710;-64
2023/04/29 03:31:23;;;;;;;131.23;124.27;;;18.40;91.30;;;;;;5052782;28;20584;-68
2023/04/29 03:33:52;;;;;;;126.67;119.53;;;18.40;91.30;;;;;;5051909;28;20184;-67
2023/04/29 03:36:20;;;;;;;139.37;132.17;;;18.40;91.20;;;;;;5045671;28;20184;-68
2023/04/29 03:38:47;;;;;;;124.50;117.87;;;18.40;91.20;;;;;;5045357;28;20184;-68
2023/04/29 03:41:14;;;;;;;121.63;115.33;;;18.30;90.80;;;;;;5051611;28;20206;-66
2023/04/29 03:43:44;;;;;;;112.80;106.77;;;18.30;90.90;;;;;;5052241;28;20207;-66
2023/04/29 03:46:11;;;;;;;115.30;109.20;;;18.30;91.00;;;;;;5051874;28;20546;-68
2023/04/29 03:48:38;;;;;;;117.17;111.17;;;18.40;91.10;;;;;;5052745;28;20326;-68
2023/04/29 03:51:06;;;;;;;117.20;110.93;;;18.40;91.00;;;;;;5051787;28;20192;-67
2023/04/29 03:53:34;;;;;;;118.40;111.97;;;18.40;91.00;;;;;;5045960;28;20230;-69
2023/04/29 03:56:01;;;;;;;119.20;113.10;;;18.50;90.90;;;;;;5050607;28;20235;-65
2023/04/29 03:58:28;;;;;;;101.87;96.60;;;18.40;90.80;;;;;;5051176;28;20180;-64
2023/04/29 04:00:56;;;;;;;82.83;78.53;;;18.40;90.40;;;;;;5051938;28;20485;-67
2023/04/29 04:03:24;;;;;;;88.97;84.07;;;18.30;90.10;;;;;;5049572;28;20188;-65
2023/04/29 04:05:52;;;;;;;91.33;86.60;;;18.30;89.80;;;;;;5049315;28;20207;-68
2023/04/29 04:08:19;;;;;;;96.80;91.60;;;18.30;90.00;;;;;;5051244;28;20207;-66
2023/04/29 04:10:47;;;;;;;88.83;84.07;;;18.40;89.80;;;;;;5050931;28;20231;-65
2023/04/29 04:13:14;;;;;;;86.13;81.57;;;18.40;89.50;;;;;;5050680;28;20219;-67
2023/04/29 04:15:42;;;;;;;87.97;83.40;;;18.40;89.70;;;;;;5044552;28;20226;-64
2023/04/29 04:18:09;;;;;;;92.10;87.30;;;18.40;89.60;;;;;;5046658;28;20324;-65
2023/04/29 04:20:37;;;;;;;87.60;82.80;;;18.40;89.70;;;;;;5049277;28;20587;-64
2023/04/29 04:23:05;;;;;;;96.97;91.67;;;18.30;89.40;;;;;;5050902;28;20196;-64
2023/04/29 04:25:32;;;;;;;103.10;97.70;;;18.30;89.60;;;;;;5050951;28;20631;-63
2023/04/29 04:28:00;;;;;;;114.13;108.07;;;18.30;89.90;;;;;;5052854;28;20184;-70
2023/04/29 04:30:27;;;;;;;127.27;120.57;;;18.30;90.20;;;;;;5051889;28;20241;-69
2023/04/29 04:32:54;;;;;;;126.50;119.90;;;18.30;90.40;;;;;;5051334;28;20696;-67
2023/04/29 04:35:21;;;;;;;120.63;114.33;;;18.30;90.50;;;;;;5044995;28;20223;-66
2023/04/29 04:37:50;;;;;;;125.20;118.77;;;18.30;90.50;;;;;;5050769;28;20259;-69
2023/04/29 04:40:17;;;;;;;130.53;123.80;;;18.30;90.60;;;;;;5047291;28;20287;-65
2023/04/29 04:42:44;;;;;;;138.53;131.17;;;18.30;90.50;;;;;;5045193;28;20658;-64
2023/04/29 04:45:12;;;;;;;140.13;132.87;;;18.40;90.90;;;;;;5050786;28;20588;-69
2023/04/29 04:47:41;;;;;;;136.80;129.80;;;18.40;90.90;;;;;;5050095;28;20180;-70
2023/04/29 04:50:09;;;;;;;145.33;137.47;;;18.50;91.00;;;;;;5049290;28;20237;-66
2023/04/29 04:52:36;;;;;;;140.07;132.57;;;18.70;91.00;;;;;;5050732;28;20274;-67
2023/04/29 04:55:04;;;;;;;133.30;126.23;;;18.80;90.90;;;;;;5049024;28;20224;-66
2023/04/29 04:57:31;;;;;;;131.80;124.90;;;18.80;90.40;;;;;;5046746;28;20187;-65
2023/04/29 04:59:58;;;;;;;124.23;117.63;;;18.80;90.40;;;;;;5050498;28;20195;-65
2023/04/29 05:02:26;;;;;;;125.47;118.77;;;18.80;90.20;;;;;;5049919;28;20622;-64
2023/04/29 05:04:53;;;;;;;110.70;104.70;;;18.90;90.10;;;;;;5050387;28;20596;-64
2023/04/29 05:07:20;;;;;;;98.43;93.10;;;18.80;89.80;;;;;;5046742;28;20188;-66
2023/04/29 05:09:48;;;;;;;90.70;85.80;;;18.80;89.50;;;;;;5047447;28;20228;-68
2023/04/29 05:12:15;;;;;;;86.73;81.47;;;18.80;89.30;;;;;;5048899;28;20544;-65
2023/04/29 05:14:42;;;;;;;76.63;72.27;;;18.60;89.20;;;;;;5050902;28;20214;-67
2023/04/29 05:17:10;;;;;;;79.77;75.37;;;18.50;89.20;;;;;;5044444;28;20291;-65
2023/04/29 05:19:37;;;;;;;103.80;98.07;;;18.60;89.20;;;;;;5050710;28;20651;-65
2023/04/29 05:22:05;;;;;;;103.90;98.30;;;18.70;89.70;;;;;;5048259;28;20215;-70
2023/04/29 05:24:32;;;;;;;98.37;93.27;;;18.70;89.60;;;;;;5043180;28;20690;-65
2023/04/29 05:26:59;;;;;;;84.10;79.43;;;18.60;89.40;;;;;;5045275;28;20562;-68
2023/04/29 05:29:27;;;;;;;81.87;77.20;;;18.50;89.10;;;;;;5050718;28;20196;-67
2023/04/29 05:31:54;;;;;;;73.90;69.77;;;18.50;89.00;;;;;;5044835;28;20219;-67
2023/04/29 05:34:21;;;;;;;68.60;64.77;;;18.30;88.60;;;;;;5048315;28;20294;-66
2023/04/29 05:36:49;;;;;;;63.57;60.07;;;18.30;88.40;;;;;;5047873;28;20611;-65
2023/04/29 05:39:16;;;;;;;71.63;67.77;;;18.30;88.30;;;;;;5042696;28;20522;-66
2023/04/29 05:41:44;;;;;;;74.00;70.03;;;18.30;88.50;;;;;;5050845;28;20180;-65
2023/04/29 05:44:11;;;;;;;81.73;77.23;;;18.40;88.60;;;;;;5049918;28;20192;-66
2023/04/29 05:46:39;;;;;;;89.77;84.97;;;18.50;88.80;;;;;;5050452;28;20298;-66
2023/04/29 05:49:06;;;;;;;86.00;81.40;;;18.50;88.90;;;;;;5048951;28;20199;-65
2023/04/29 05:51:35;;;;;;;82.83;78.30;;;18.40;88.60;;;;;;5046567;28;20211;-65
2023/04/29 05:54:02;;;;;;;82.10;77.63;;;18.40;88.70;;;;;;5050408;28;20267;-65
2023/04/29 05:56:30;;;;;;;86.50;81.70;;;18.30;88.80;;;;;;5047242;28;20257;-66
2023/04/29 05:58:57;;;;;;;92.60;87.60;;;18.30;88.90;;;;;;5048380;28;20549;-67
2023/04/29 06:01:25;;;;;;;97.73;92.20;;;18.30;89.10;;;;;;5046947;28;20341;-67
2023/04/29 06:03:52;;;;;;;107.27;101.23;;;18.40;89.30;;;;;;5049217;28;20643;-67
2023/04/29 06:06:19;;;;;;;108.13;102.27;;;18.40;89.50;;;;;;5047513;28;20187;-67
2023/04/29 06:08:47;;;;;;;109.07;103.20;;;18.40;89.50;;;;;;5047153;28;20234;-67
2023/04/29 06:11:14;;;;;;;113.40;107.40;;;18.30;89.50;;;;;;5051415;28;20263;-67
2023/04/29 06:13:41;;;;;;;109.07;103.17;;;18.30;89.50;;;;;;5051623;28;20622;-65
2023/04/29 06:16:12;;;;;;;126.53;119.70;;;18.30;89.50;;;;;;5050308;28;20221;-67
2023/04/29 06:18:40;;;;;;;129.77;122.63;;;18.30;89.80;;;;;;5051207;28;20253;-67
2023/04/29 06:21:07;;;;;;;136.93;129.33;;;18.30;89.90;;;;;;5048278;28;20180;-67
2023/04/29 06:23:35;;;;;;;145.07;137.37;;;18.30;89.90;;;;;;5053096;28;20191;-67
2023/04/29 06:26:02;;;;;;;150.20;142.20;;;18.30;90.20;;;;;;5051943;28;20207;-68
2023/04/29 06:28:29;;;;;;;148.57;140.50;;;18.30;90.20;;;;;;5054119;28;20266;-67
2023/04/29 06:30:57;;;;;;;151.43;143.43;;;18.20;90.10;;;;;;5051115;28;20183;-67
2023/04/29 06:33:25;;;;;;;155.23;146.80;;;18.20;90.10;;;;;;5048234;28;20215;-68
2023/04/29 06:35:54;;;;;;;158.93;150.63;;;18.30;90.60;;;;;;5052151;28;20222;-67
2023/04/29 06:38:21;;;;;;;165.57;156.93;;;18.20;90.60;;;;;;5051428;28;20184;-67
2023/04/29 06:40:48;;;;;;;174.80;165.70;;;18.30;90.60;;;;;;5051685;28;20242;-70
2023/04/29 06:43:16;;;;;;;181.73;172.33;;;18.30;90.70;;;;;;5044111;28;20179;-69
2023/04/29 06:45:46;;;;;;;180.27;170.73;;;18.20;90.60;;;;;;5054240;28;20618;-67
2023/04/29 06:48:14;;;;;;;187.90;178.40;;;18.10;90.50;;;;;;5051861;28;20540;-69
2023/04/29 06:50:53;;;;;;;192.33;182.53;;;18.10;90.70;;;;;;5053437;28;20656;-67
2023/04/29 06:53:21;;;;;;;185.47;176.13;;;18.10;90.80;;;;;;5052391;28;20278;-67
2023/04/29 06:55:48;;;;;;;200.10;189.90;;;18.10;90.90;;;;;;5051776;28;20306;-69
2023/04/29 06:58:16;;;;;;;208.73;198.23;;;18.00;90.90;;;;;;5047838;28;20638;-67
2023/04/29 07:00:48;;;;;;;200.67;190.47;;;18.00;91.00;;;;;;5048384;28;20184;-67
2023/04/29 07:03:17;;;;;;;208.17;197.53;;;18.00;91.10;;;;;;5049978;28;20199;-68
2023/04/29 07:05:45;;;;;;;206.03;195.63;;;18.00;91.20;;;;;;5048838;28;20184;-67
2023/04/29 07:08:13;;;;;;;204.30;193.70;;;18.00;91.20;;;;;;5047772;28;20579;-66
2023/04/29 07:10:41;;;;;;;214.20;203.57;;;18.00;91.30;;;;;;5050395;28;20220;-66
2023/04/29 07:13:08;;;;;;;224.93;213.40;;;18.00;91.40;;;;;;5052717;28;20259;-65
2023/04/29 07:15:36;;;;;;;236.90;224.97;;;18.10;91.50;;;;;;5047079;28;20235;-65
2023/04/29 07:18:07;;;;;;;243.40;231.23;;;18.10;91.60;;;;;;5055322;28;20616;-65
2023/04/29 07:20:36;;;;;;;256.80;244.13;;;18.00;91.50;;;;;;5052195;28;20518;-65
2023/04/29 07:23:04;;;;;;;262.07;248.90;;;18.00;91.60;;;;;;5048760;28;20191;-65
2023/04/29 07:25:32;;;;;;;266.17;253.13;;;18.00;91.70;;;;;;5051181;28;20176;-66
2023/04/29 07:28:00;;;;;;;275.03;261.67;;;18.00;91.70;;;;;;5051002;28;20616;-64
2023/04/29 07:30:27;;;;;;;296.77;282.17;;;17.90;91.80;;;;;;5051663;28;20241;-65
2023/04/29 07:32:54;;;;;;;296.70;281.80;;;17.80;92.00;;;;;;5051398;28;20180;-68
2023/04/29 07:35:22;;;;;;;316.03;300.63;;;17.80;92.30;;;;;;5053204;28;20219;-65
2023/04/29 07:37:49;;;;;;;325.13;309.13;;;17.80;92.40;;;;;;5049395;28;20277;-65
2023/04/29 07:40:16;;;;;;;330.17;314.17;;;17.80;92.40;;;;;;5051087;28;20186;-66
2023/04/29 07:42:44;;;;;;;326.00;310.20;;;17.70;92.50;;;;;;5052755;28;20195;-66
2023/04/29 07:45:12;;;;;;;325.40;309.23;;;17.60;92.50;;;;;;5051452;28;20268;-66
2023/04/29 07:47:40;;;;;;;339.93;323.23;;;17.50;92.50;;;;;;5049009;28;20649;-66
2023/04/29 07:50:07;;;;;;;350.20;332.73;;;17.50;92.60;;;;;;5050849;28;20179;-66
2023/04/29 07:52:35;;;;;;;370.07;351.60;;;17.50;92.70;;;;;;5052721;28;20199;-65
2023/04/29 07:55:02;;;;;;;382.70;363.50;;;17.50;92.80;;;;;;5051218;28;20207;-65
2023/04/29 07:57:30;;;;;;;391.57;371.97;;;17.60;93.00;;;;;;5052116;28;20184;-65
2023/04/29 07:59:57;;;;;;;401.77;381.53;;;17.60;92.90;;;;;;5052047;28;20192;-65
2023/04/29 08:02:24;;;;;;;416.43;395.30;;;17.60;93.00;;;;;;5051468;28;20195;-66
2023/04/29 08:04:54;;;;;;;435.30;413.43;;;17.60;93.00;;;;;;5049245;28;20187;-64
2023/04/29 08:07:22;;;;;;;434.57;412.67;;;17.60;93.00;;;;;;5048464;28;20266;-64
2023/04/29 08:09:49;;;;;;;430.17;408.63;;;17.60;93.00;;;;;;5048520;28;20587;-64
2023/04/29 08:12:16;;;;;;;437.67;415.33;;;17.60;93.10;;;;;;5047747;28;20218;-65
2023/04/29 08:14:44;;;;;;;439.73;417.63;;;17.60;93.20;;;;;;5047502;28;20572;-66
2023/04/29 08:17:11;;;;;;;445.07;422.63;;;17.70;93.30;;;;;;5046683;28;20194;-65
2023/04/29 08:19:39;;;;;;;453.37;430.17;;;17.60;93.10;;;;;;5047355;28;20245;-66
2023/04/29 08:22:07;;;;;;;447.67;425.13;;;17.60;93.20;;;;;;5047236;28;20290;-65
2023/04/29 08:24:34;;;;;;;452.97;429.43;;;17.60;93.00;;;;;;5050940;28;20233;-65
2023/04/29 08:27:02;;;;;;;452.47;429.27;;;17.50;93.10;;;;;;5045300;28;20188;-65
2023/04/29 08:29:34;;;;;;;461.60;437.13;;;17.50;93.10;;;;;;5045221;28;20183;-64
2023/04/29 08:32:02;;;;;;;450.87;427.77;;;17.50;93.10;;;;;;5048065;28;20237;-66
2023/04/29 08:34:30;;;;;;;453.53;429.87;;;17.50;93.00;;;;;;5051473;28;20208;-66
2023/04/29 08:36:58;;;;;;;447.13;424.53;;;17.50;93.00;;;;;;5050165;28;21123;-66
2023/04/29 08:39:25;;;;;;;466.53;442.23;;;17.60;93.10;;;;;;5047609;28;20595;-66
2023/04/29 08:41:54;;;;;;;464.07;440.00;;;17.60;93.10;;;;;;5051329;28;20249;-67
2023/04/29 08:44:22;;;;;;;476.07;451.73;;;17.60;93.10;;;;;;5051180;28;20187;-67
2023/04/29 08:46:50;;;;;;;483.97;458.33;;;17.70;93.10;;;;;;5048321;28;20694;-66
2023/04/29 08:49:17;;;;;;;478.43;453.20;;;17.70;93.10;;;;;;5049852;28;20184;-66
2023/04/29 08:51:50;;;;;;;484.57;459.47;;;17.60;93.00;;;;;;5047040;28;20192;-67
2023/04/29 08:54:18;;;;;;;477.73;453.07;;;17.70;93.10;;;;;;5048446;28;20428;-66
2023/04/29 08:56:46;;;;;;;472.90;447.90;;;17.60;93.00;;;;;;5051100;28;20270;-66
2023/04/29 08:59:16;;;;;;;489.30;463.43;;;17.60;93.10;;;;;;5050901;28;20190;-66
2023/04/29 09:01:49;;;;;;;495.80;469.67;;;17.60;93.10;;;;;;5049894;28;20216;-65
2023/04/29 09:04:35;;;;;;;494.23;468.23;;;17.70;93.20;;;;;;5047727;28;20192;-64
2023/04/29 09:07:03;;;;;;;528.97;500.67;;;17.70;93.20;;;;;;5048472;28;20778;-66
2023/04/29 09:09:32;;;;;;;521.70;493.93;;;17.70;93.30;;;;;;5049279;28;20689;-65
2023/04/29 09:11:59;;;;;;;535.60;507.40;;;17.70;93.30;;;;;;5050928;28;20199;-65
2023/04/29 09:14:28;;;;;;;539.17;509.93;;;17.70;93.40;;;;;;5049318;28;20665;-64
2023/04/29 09:16:55;;;;;;;544.23;515.20;;;17.70;93.40;;;;;;5050422;28;20241;-65
2023/04/29 09:19:40;;;;;;;564.90;534.40;;;17.70;93.40;;;;;;5050021;28;20266;-65
2023/04/29 09:22:07;;;;;;;571.30;540.57;;;17.70;93.40;;;;;;5050273;28;20203;-67
2023/04/29 09:24:35;;;;;;;570.70;540.10;;;17.70;93.40;;;;;;5050937;28;20202;-67
2023/04/29 09:27:03;;;;;;;558.13;528.53;;;17.70;93.40;;;;;;5050329;28;20192;-68
2023/04/29 09:29:33;;;;;;;558.63;528.93;;;17.60;93.40;;;;;;5050940;28;20238;-67
2023/04/29 09:32:00;;;;;;;567.00;536.80;;;17.60;93.40;;;;;;5049321;28;20199;-68
2023/04/29 09:34:37;;;;;;;571.40;540.50;;;17.70;93.40;;;;;;5050800;28;20286;-69
2023/04/29 09:37:22;;;;;;;577.80;546.40;;;17.70;93.50;;;;;;5050951;28;20188;-67
2023/04/29 09:39:49;;;;;;;599.80;566.20;;;17.80;93.50;;;;;;5048666;28;20179;-67
2023/04/29 09:42:17;;;;;;;616.03;581.70;;;17.70;93.50;;;;;;5054545;28;20202;-67
2023/04/29 09:44:44;;;;;;;618.00;583.60;;;17.80;93.60;;;;;;5048454;28;20176;-67
2023/04/29 09:47:12;;;;;;;623.87;588.90;;;17.70;93.60;;;;;;5054289;28;20186;-66
2023/04/29 09:49:44;;;;;;;621.57;587.47;;;17.60;93.70;;;;;;5052588;28;20638;-66
2023/04/29 09:52:17;;;;;;;626.33;591.97;;;17.60;93.80;;;;;;5052556;28;20726;-67
2023/04/29 09:54:44;;;;;;;620.77;586.23;;;17.60;93.80;;;;;;5052425;28;20216;-65
2023/04/29 09:57:17;;;;;;;628.87;593.90;;;17.50;93.80;;;;;;5054372;28;20195;-65
2023/04/29 09:59:45;;;;;;;625.83;591.10;;;17.50;93.90;;;;;;5053032;28;20188;-65
2023/04/29 10:02:17;;;;;;;628.13;593.17;;;17.50;94.00;;;;;;5052669;28;20287;-64
2023/04/29 10:04:46;;;;;;;622.47;587.80;;;17.50;93.90;;;;;;5049529;28;20194;-65
2023/04/29 10:07:19;;;;;;;623.67;588.73;;;17.40;94.00;;;;;;5054669;28;20191;-64
2023/04/29 10:09:47;;;;;;;634.87;599.33;;;17.50;94.00;;;;;;5048880;28;20265;-66
2023/04/29 10:12:19;;;;;;;663.73;625.00;;;17.50;94.10;;;;;;5051972;28;20720;-66
2023/04/29 10:14:53;;;;;;;654.33;616.53;;;17.40;94.00;;;;;;5050230;28;20212;-69
2023/04/29 10:17:44;;;;;;;653.57;616.43;;;17.40;94.10;;;;;;5052996;28;20734;-68
2023/04/29 10:20:17;;;;;;;671.27;632.20;;;17.40;94.20;;;;;;5053509;28;20191;-67
2023/04/29 10:22:49;;;;;;;673.93;634.33;;;17.40;94.20;;;;;;5053072;28;20194;-67
2023/04/29 10:25:19;;;;;;;702.70;659.63;;;17.40;94.20;;;;;;5050876;28;20223;-67
2023/04/29 10:27:49;;;;;;;731.03;685.77;;;17.40;94.20;;;;;;5051735;28;20286;-66
2023/04/29 10:30:18;;;;;;;743.00;697.33;;;17.30;94.20;;;;;;5049260;28;20198;-68
2023/04/29 10:32:48;;;;;;;754.67;707.57;;;17.30;94.30;;;;;;5053350;28;20195;-67
2023/04/29 10:35:21;;;;;;;756.53;709.77;;;17.20;94.50;;;;;;5049951;28;20567;-67
2023/04/29 10:37:49;;;;;;;744.20;698.80;;;17.20;94.50;;;;;;5054164;28;20191;-67
2023/04/29 10:40:21;;;;;;;752.73;706.30;;;17.20;94.70;;;;;;5049104;28;20199;-67
2023/04/29 10:42:51;;;;;;;747.37;701.23;;;17.10;94.80;;;;;;5053641;28;20180;-68
2023/04/29 10:45:31;;;;;;;747.07;700.97;;;17.10;94.80;;;;;;5049744;28;20192;-67
2023/04/29 10:48:05;;;;;;;758.03;710.83;;;17.10;94.80;;;;;;5053344;28;20639;-67
2023/04/29 10:50:33;;;;;;;754.00;706.93;;;17.00;94.90;;;;;;5052188;28;20226;-67
2023/04/29 10:53:05;;;;;;;751.90;704.73;;;17.00;94.90;;;;;;5053430;28;20215;-67
2023/04/29 10:55:35;;;;;;;760.53;712.77;;;17.10;94.90;;;;;;5053105;28;20223;-66
2023/04/29 10:58:03;;;;;;;756.77;708.63;;;17.10;94.90;;;;;;5053740;28;20194;-66
2023/04/29 11:00:33;;;;;;;748.70;701.67;;;17.10;94.90;;;;;;5051872;28;20184;-67
2023/04/29 11:03:01;;;;;;;748.33;701.03;;;17.10;94.90;;;;;;5052830;28;20669;-65
2023/04/29 11:05:35;;;;;;;747.87;700.77;;;17.10;95.00;;;;;;5051156;28;20728;-67
2023/04/29 11:08:22;;;;;;;752.93;705.23;;;17.10;95.00;;;;;;5053543;28;20187;-63
2023/04/29 11:11:01;;;;;;;748.43;700.97;;;17.00;94.90;;;;;;5050061;28;20357;-67
2023/04/29 11:13:31;;;;;;;745.93;698.73;;;17.00;95.00;;;;;;5049109;28;20920;-64
2023/04/29 11:16:10;;;;;;;766.03;717.47;;;17.00;95.00;;;;;;5051689;28;20593;-62
2023/04/29 11:19:08;;;;;;;765.50;716.93;;;17.00;94.90;;;;;;5049639;28;20270;-63
2023/04/29 11:21:37;;;;;;;774.10;724.37;;;17.00;95.00;;;;;;5048314;28;20176;-63
2023/04/29 11:24:05;;;;;;;776.77;727.40;;;17.00;95.00;;;;;;5052498;28;20196;-64
2023/04/29 11:26:35;;;;;;;777.07;727.60;;;17.00;95.00;;;;;;5052655;28;20188;-62
2023/04/29 11:29:04;;;;;;;779.50;729.57;;;17.00;95.10;;;;;;5052652;28;20191;-67
2023/04/29 11:31:32;;;;;;;773.77;723.80;;;17.00;95.00;;;;;;5042704;28;20184;-68
2023/04/29 11:34:00;;;;;;;769.30;719.43;;;17.00;95.00;;;;;;5050990;28;20187;-66
2023/04/29 11:36:27;;;;;;;771.97;721.87;;;17.00;95.00;;;;;;5053054;28;20179;-65
2023/04/29 11:38:55;;;;;;;771.17;721.87;;;17.00;95.10;;;;;;5050861;28;20273;-63
2023/04/29 11:41:23;;;;;;;780.43;730.17;;;16.90;95.10;;;;;;5052769;28;20180;-65
2023/04/29 11:43:57;;;;;;;782.97;732.07;;;16.90;95.00;;;;;;5051268;28;20282;-63
2023/04/29 11:46:27;;;;;;;780.67;729.20;;;17.00;95.00;;;;;;5051595;28;20202;-64
2023/04/29 11:48:57;;;;;;;782.07;730.77;;;17.00;95.10;;;;;;5052403;28;20260;-64
2023/04/29 11:51:25;;;;;;;783.37;731.77;;;17.00;95.10;;;;;;5050665;28;20255;-63
2023/04/29 11:53:53;;;;;;;788.13;736.40;;;17.00;95.00;;;;;;5048688;28;20180;-62
2023/04/29 11:56:27;;;;;;;786.23;734.83;;;17.00;95.10;;;;;;5052365;28;20218;-67
2023/04/29 11:58:57;;;;;;;786.43;735.17;;;17.00;95.00;;;;;;5050261;28;20197;-63
2023/04/29 12:01:26;;;;;;;780.60;729.50;;;16.90;95.00;;;;;;5051221;28;20187;-65
2023/04/29 12:04:01;;;;;;;786.37;735.13;;;16.90;95.00;;;;;;5049188;28;20190;-64
2023/04/29 12:06:29;;;;;;;788.87;737.07;;;16.90;95.10;;;;;;5052409;28;20183;-66
2023/04/29 12:08:59;;;;;;;794.30;742.33;;;16.90;95.00;;;;;;5051178;28;20308;-65
2023/04/29 12:11:27;;;;;;;795.67;742.97;;;16.90;95.10;;;;;;5045973;28;20199;-63
2023/04/29 12:13:55;;;;;;;790.27;738.17;;;16.90;95.00;;;;;;5045967;28;20188;-67
2023/04/29 12:16:24;;;;;;;794.97;742.80;;;16.80;95.00;;;;;;5051427;28;20283;-67
2023/04/29 12:18:52;;;;;;;797.33;745.00;;;16.80;94.90;;;;;;5051166;28;20333;-66
2023/04/29 12:21:21;;;;;;;792.93;741.03;;;16.80;95.00;;;;;;5049651;28;20265;-63
2023/04/29 12:23:50;;;;;;;790.07;737.97;;;16.80;95.00;;;;;;5048682;28;20195;-64